createdAt,value
2019-05-30T00:00:54.080Z,86.19
2019-05-30T00:03:27.518Z,85.46
2019-05-30T00:06:00.905Z,85.10
2019-05-30T00:08:34.297Z,84.59
2019-05-30T00:11:07.780Z,84.18
2019-05-30T00:13:41.201Z,83.88
2019-05-30T00:16:14.608Z,84.88
2019-05-30T00:18:48.041Z,84.87
2019-05-30T00:21:21.433Z,85.32
2019-05-30T00:23:55.773Z,85.28
2019-05-30T00:26:29.316Z,85.88
2019-05-30T00:29:02.781Z,85.93
2019-05-30T00:31:36.187Z,86.79
2019-05-30T00:34:09.593Z,86.65
2019-05-30T00:36:43.014Z,86.20
2019-05-30T00:39:16.431Z,86.27
2019-05-30T00:41:49.847Z,86.43
2019-05-30T00:44:23.260Z,87.31
2019-05-30T00:46:57.851Z,87.95
2019-05-30T00:49:31.482Z,88.58
2019-05-30T00:52:05.194Z,89.31
2019-05-30T00:54:38.656Z,89.28
2019-05-30T00:57:12.285Z,89.59
2019-05-30T00:59:45.723Z,89.95
2019-05-30T01:02:19.185Z,90.33
2019-05-30T01:04:52.611Z,88.64
2019-05-30T01:07:26.034Z,87.14
2019-05-30T01:09:59.512Z,86.53
2019-05-30T01:12:32.909Z,86.26
2019-05-30T01:15:10.599Z,86.05
2019-05-30T01:17:44.015Z,86.18
2019-05-30T01:20:18.684Z,86.33
2019-05-30T01:22:52.146Z,86.66
2019-05-30T01:25:25.570Z,87.30
2019-05-30T01:27:59.509Z,86.95
2019-05-30T01:30:32.973Z,87.08
2019-05-30T01:33:07.638Z,86.47
2019-05-30T01:35:41.455Z,86.68
2019-05-30T01:38:14.859Z,87.29
2019-05-30T01:40:48.280Z,87.08
2019-05-30T01:43:21.663Z,87.61
2019-05-30T01:45:55.084Z,87.76
2019-05-30T01:48:29.580Z,87.33
2019-05-30T01:51:03.013Z,86.53
2019-05-30T01:53:36.482Z,86.00
2019-05-30T01:56:09.903Z,86.04
2019-05-30T01:58:43.305Z,86.02
2019-05-30T02:01:24.294Z,86.72
2019-05-30T02:03:51.824Z,87.07
2019-05-30T02:06:25.250Z,87.58
2019-05-30T02:08:59.136Z,87.96
2019-05-30T02:11:32.750Z,87.42
2019-05-30T02:14:06.153Z,86.46
2019-05-30T02:16:39.572Z,86.12
2019-05-30T02:19:12.979Z,86.22
2019-05-30T02:21:46.394Z,86.37
2019-05-30T02:24:19.794Z,85.89
2019-05-30T02:26:53.221Z,87.26
2019-05-30T02:29:26.682Z,87.88
2019-05-30T02:32:01.072Z,88.04
2019-05-30T02:34:35.225Z,88.92
2019-05-30T02:37:10.769Z,89.20
2019-05-30T02:39:43.764Z,89.26
2019-05-30T02:42:17.202Z,89.30
2019-05-30T02:44:50.585Z,90.11
2019-05-30T02:47:23.997Z,90.28
2019-05-30T02:49:57.393Z,89.60
2019-05-30T02:52:30.824Z,89.49
2019-05-30T02:55:06.662Z,89.64
2019-05-30T02:57:39.907Z,90.03
2019-05-30T03:00:17.488Z,90.58
2019-05-30T03:02:48.992Z,91.45
2019-05-30T03:05:22.410Z,91.59
2019-05-30T03:07:56.166Z,91.73
2019-05-30T03:10:29.741Z,91.87
2019-05-30T03:13:04.110Z,92.29
2019-05-30T03:15:38.352Z,92.42
2019-05-30T03:18:12.873Z,92.45
2019-05-30T03:20:47.209Z,92.50
2019-05-30T03:23:20.698Z,92.93
2019-05-30T03:25:54.120Z,92.77
2019-05-30T03:28:27.973Z,92.91
2019-05-30T03:31:05.924Z,92.98
2019-05-30T03:33:42.002Z,92.86
2019-05-30T03:36:23.914Z,93.81
2019-05-30T03:38:48.456Z,94.26
2019-05-30T03:41:21.942Z,94.90
2019-05-30T03:43:55.402Z,94.64
2019-05-30T03:46:31.873Z,94.48
2019-05-30T03:49:09.115Z,94.00
2019-05-30T03:51:45.326Z,93.91
2019-05-30T03:54:19.878Z,93.51
2019-05-30T03:57:02.492Z,93.26
2019-05-30T03:59:44.675Z,93.23
2019-05-30T04:02:33.157Z,92.96
2019-05-30T04:05:09.674Z,92.70
2019-05-30T04:07:50.154Z,92.79
2019-05-30T04:10:26.611Z,92.19
2019-05-30T04:13:27.174Z,92.22
2019-05-30T04:16:00.601Z,92.03
2019-05-30T04:18:34.001Z,91.95
2019-05-30T04:21:08.514Z,92.37
2019-05-30T04:23:42.376Z,91.76
2019-05-30T04:26:16.141Z,90.88
2019-05-30T04:28:50.962Z,90.34
2019-05-30T04:31:24.385Z,90.59
2019-05-30T04:33:57.828Z,90.25
2019-05-30T04:36:31.237Z,87.95
2019-05-30T04:39:08.633Z,87.23
2019-05-30T04:41:42.274Z,87.05
2019-05-30T04:44:16.356Z,85.32
2019-05-30T04:46:50.903Z,82.70
2019-05-30T04:49:24.301Z,82.23
2019-05-30T04:51:57.790Z,82.29
2019-05-30T04:54:31.161Z,77.89
2019-05-30T04:57:04.662Z,76.99
2019-05-30T04:59:38.077Z,78.34
2019-05-30T05:02:13.516Z,77.75
2019-05-30T05:04:46.599Z,75.38
2019-05-30T05:07:20.029Z,73.98
2019-05-30T05:09:53.438Z,71.91
2019-05-30T05:12:26.830Z,71.93
2019-05-30T05:15:00.237Z,74.40
2019-05-30T05:17:33.678Z,74.86
2019-05-30T05:20:10.350Z,74.82
2019-05-30T05:22:43.755Z,75.21
2019-05-30T05:25:17.488Z,74.06
2019-05-30T05:27:50.948Z,70.80
2019-05-30T05:30:24.511Z,66.96
2019-05-30T05:32:57.921Z,65.26
2019-05-30T05:35:31.334Z,68.53
2019-05-30T05:38:04.809Z,68.30
2019-05-30T05:40:38.237Z,66.85
2019-05-30T05:43:11.671Z,66.44
2019-05-30T05:45:45.124Z,66.70
2019-05-30T05:48:20.485Z,66.58
2019-05-30T05:50:53.914Z,62.93
2019-05-30T05:53:27.332Z,63.72
2019-05-30T05:56:00.710Z,60.86
2019-05-30T05:58:34.124Z,63.63
2019-05-30T06:01:07.504Z,61.01
2019-05-30T06:03:40.930Z,59.30
2019-05-30T06:06:14.416Z,60.06
2019-05-30T06:08:47.797Z,61.48
2019-05-30T06:11:21.199Z,63.53
2019-05-30T06:13:54.611Z,63.17
2019-05-30T06:16:28.416Z,61.20
2019-05-30T06:19:01.898Z,62.61
2019-05-30T06:21:35.301Z,63.20
2019-05-30T06:24:08.736Z,59.94
2019-05-30T06:26:43.657Z,61.12
2019-05-30T06:29:17.970Z,60.34
2019-05-30T06:31:51.579Z,58.90
2019-05-30T06:34:35.959Z,59.61
2019-05-30T06:37:00.236Z,58.72
2019-05-30T06:39:33.712Z,59.42
2019-05-30T06:42:07.304Z,57.22
2019-05-30T06:44:40.709Z,58.84
2019-05-30T06:47:14.201Z,60.01
2019-05-30T06:49:47.608Z,58.22
2019-05-30T06:52:29.177Z,57.34
2019-05-30T06:55:02.671Z,56.82
2019-05-30T06:57:36.085Z,56.43
2019-05-30T07:00:09.846Z,56.93
2019-05-30T07:02:43.291Z,55.94
2019-05-30T07:05:17.707Z,56.72
2019-05-30T07:07:51.625Z,55.37
2019-05-30T07:10:26.800Z,56.17
2019-05-30T07:13:00.296Z,56.13
2019-05-30T07:15:34.382Z,55.65
2019-05-30T07:18:07.924Z,58.34
2019-05-30T07:20:41.321Z,58.88
2019-05-30T07:23:14.734Z,56.69
2019-05-30T07:25:48.164Z,58.78
2019-05-30T07:28:21.652Z,58.40
2019-05-30T07:30:55.152Z,58.54
2019-05-30T07:33:28.572Z,57.12
2019-05-30T07:36:02.808Z,55.88
2019-05-30T07:38:36.283Z,56.99
2019-05-30T07:41:09.788Z,57.17
2019-05-30T07:43:43.223Z,55.50
2019-05-30T07:46:16.722Z,54.63
2019-05-30T07:48:50.133Z,55.50
2019-05-30T07:51:24.532Z,53.19
2019-05-30T07:53:58.035Z,54.64
2019-05-30T07:56:31.452Z,55.11
2019-05-30T07:59:04.989Z,53.72
2019-05-30T08:01:39.654Z,53.13
2019-05-30T08:04:13.317Z,53.95
2019-05-30T08:06:46.749Z,53.96
2019-05-30T08:09:20.140Z,55.09
2019-05-30T08:11:54.045Z,52.80
2019-05-30T08:14:27.453Z,51.69
2019-05-30T08:17:00.907Z,51.40
2019-05-30T08:19:34.467Z,52.37
2019-05-30T08:22:07.805Z,53.02
2019-05-30T08:24:41.231Z,54.11
2019-05-30T08:27:14.638Z,52.13
2019-05-30T08:29:48.055Z,50.18
2019-05-30T08:32:21.480Z,50.13
2019-05-30T08:34:54.860Z,50.46
2019-05-30T08:37:28.922Z,52.00
2019-05-30T08:40:02.358Z,52.38
2019-05-30T08:42:35.793Z,52.93
2019-05-30T08:45:10.451Z,52.96
2019-05-30T08:47:44.008Z,53.11
2019-05-30T08:50:17.859Z,52.67
2019-05-30T08:52:51.310Z,53.81
2019-05-30T08:55:24.710Z,52.04
2019-05-30T08:57:58.133Z,52.04
2019-05-30T09:00:31.686Z,51.94
2019-05-30T09:03:05.627Z,51.96
2019-05-30T09:05:55.555Z,52.14
2019-05-30T09:08:14.195Z,51.25
2019-05-30T09:10:47.585Z,51.02
2019-05-30T09:13:21.072Z,47.46
2019-05-30T09:15:54.596Z,49.98
2019-05-30T09:18:27.993Z,49.97
2019-05-30T09:21:01.434Z,49.94
2019-05-30T09:23:34.865Z,46.63
2019-05-30T09:26:08.363Z,45.87
2019-05-30T09:28:42.221Z,47.93
2019-05-30T09:31:15.761Z,45.11
2019-05-30T09:33:49.154Z,43.24
2019-05-30T09:36:22.604Z,43.36
2019-05-30T09:38:56.058Z,43.48
2019-05-30T09:41:29.489Z,42.88
2019-05-30T09:44:02.923Z,43.72
2019-05-30T09:46:36.435Z,42.40
2019-05-30T09:49:09.872Z,42.46
2019-05-30T09:51:44.135Z,43.44
2019-05-30T09:54:18.566Z,40.84
2019-05-30T09:56:53.132Z,43.40
2019-05-30T09:59:26.984Z,42.95
2019-05-30T10:02:00.463Z,41.66
2019-05-30T10:04:33.867Z,41.80
2019-05-30T10:07:07.274Z,42.74
2019-05-30T10:09:40.701Z,41.93
2019-05-30T10:12:14.146Z,42.58
2019-05-30T10:14:48.617Z,42.31
2019-05-30T10:17:22.337Z,39.57
2019-05-30T10:19:57.234Z,39.83
2019-05-30T10:22:30.953Z,38.34
2019-05-30T10:25:06.016Z,39.88
2019-05-30T10:27:39.428Z,39.19
2019-05-30T10:30:13.886Z,39.95
2019-05-30T10:32:48.562Z,41.87
2019-05-30T10:35:22.698Z,41.17
2019-05-30T10:37:56.858Z,41.54
2019-05-30T10:40:32.201Z,41.57
2019-05-30T10:43:08.462Z,40.43
2019-05-30T10:45:40.909Z,39.65
2019-05-30T10:48:14.339Z,38.89
2019-05-30T10:50:48.535Z,39.06
2019-05-30T10:53:22.115Z,41.52
2019-05-30T10:55:56.513Z,41.74
2019-05-30T10:58:29.994Z,42.79
2019-05-30T11:01:03.657Z,42.72
2019-05-30T11:03:37.215Z,43.33
2019-05-30T11:06:19.469Z,42.68
2019-05-30T11:08:55.098Z,43.31
2019-05-30T11:11:28.528Z,43.54
2019-05-30T11:14:01.932Z,44.24
2019-05-30T11:16:35.405Z,44.51
2019-05-30T11:19:08.834Z,43.68
2019-05-30T11:21:42.247Z,43.80
2019-05-30T11:24:15.677Z,42.98
2019-05-30T11:26:50.978Z,43.44
2019-05-30T11:29:24.286Z,44.22
2019-05-30T11:31:58.839Z,43.74
2019-05-30T11:34:32.404Z,42.16
2019-05-30T11:37:18.646Z,42.43
2019-05-30T11:39:40.982Z,42.05
2019-05-30T11:42:14.364Z,43.23
2019-05-30T11:44:47.805Z,42.34
2019-05-30T11:47:21.193Z,42.87
2019-05-30T11:49:55.666Z,42.87
2019-05-30T11:52:29.299Z,43.01
2019-05-30T11:55:02.738Z,42.53
2019-05-30T11:57:36.216Z,43.03
2019-05-30T12:00:10.343Z,42.67
2019-05-30T12:02:43.721Z,42.35
2019-05-30T12:05:17.697Z,42.39
2019-05-30T12:07:51.169Z,41.51
2019-05-30T12:10:25.729Z,40.62
2019-05-30T12:12:59.499Z,40.32
2019-05-30T12:15:33.144Z,41.03
2019-05-30T12:18:06.566Z,39.01
2019-05-30T12:20:40.466Z,38.87
2019-05-30T12:23:13.929Z,38.47
2019-05-30T12:25:47.350Z,38.47
2019-05-30T12:28:20.780Z,38.35
2019-05-30T12:30:59.451Z,38.71
2019-05-30T12:33:29.414Z,39.02
2019-05-30T12:36:02.870Z,36.69
2019-05-30T12:38:36.273Z,36.96
2019-05-30T12:41:09.692Z,36.38
2019-05-30T12:43:43.091Z,35.99
2019-05-30T12:46:16.580Z,36.49
2019-05-30T12:48:50.086Z,35.88
2019-05-30T12:51:23.527Z,36.22
2019-05-30T12:53:56.919Z,37.15
2019-05-30T12:56:30.353Z,36.91
2019-05-30T12:59:03.898Z,36.01
2019-05-30T13:01:37.342Z,36.40
2019-05-30T13:04:10.754Z,36.26
2019-05-30T13:06:44.177Z,36.48
2019-05-30T13:09:17.634Z,35.86
2019-05-30T13:11:51.075Z,37.47
2019-05-30T13:14:24.468Z,36.35
2019-05-30T13:16:57.966Z,37.86
2019-05-30T13:19:31.445Z,37.63
2019-05-30T13:22:04.898Z,37.18
2019-05-30T13:24:38.292Z,37.61
2019-05-30T13:27:11.726Z,37.00
2019-05-30T13:29:46.128Z,38.93
2019-05-30T13:32:19.549Z,40.49
2019-05-30T13:34:52.952Z,40.20
2019-05-30T13:37:26.357Z,40.77
2019-05-30T13:39:59.764Z,40.74
2019-05-30T13:42:33.185Z,40.12
2019-05-30T13:45:08.533Z,40.44
2019-05-30T13:47:41.969Z,40.54
2019-05-30T13:50:15.775Z,40.82
2019-05-30T13:52:49.211Z,40.99
2019-05-30T13:55:22.679Z,40.40
2019-05-30T13:57:56.184Z,39.91
2019-05-30T14:00:29.655Z,39.26
2019-05-30T14:03:04.086Z,39.96
2019-05-30T14:05:37.579Z,41.02
2019-05-30T14:08:16.449Z,40.88
2019-05-30T14:10:46.160Z,39.90
2019-05-30T14:13:19.600Z,40.25
2019-05-30T14:15:53.141Z,40.43
2019-05-30T14:18:26.543Z,40.22
2019-05-30T14:21:01.859Z,40.36
2019-05-30T14:23:35.105Z,40.33
2019-05-30T14:26:09.457Z,40.15
2019-05-30T14:28:42.955Z,40.92
2019-05-30T14:31:16.375Z,41.01
2019-05-30T14:33:49.787Z,40.93
2019-05-30T14:36:23.225Z,41.09
2019-05-30T14:38:58.655Z,41.43
2019-05-30T14:41:31.784Z,41.53
2019-05-30T14:44:05.431Z,41.82
2019-05-30T14:46:38.828Z,41.30
2019-05-30T14:49:12.745Z,40.67
2019-05-30T14:51:46.217Z,41.17
2019-05-30T14:54:19.629Z,41.01
2019-05-30T14:56:53.050Z,40.85
2019-05-30T14:59:26.457Z,41.21
2019-05-30T15:01:59.858Z,41.62
2019-05-30T15:04:33.329Z,41.87
2019-05-30T15:07:07.412Z,42.28
2019-05-30T15:09:42.575Z,42.28
2019-05-30T15:12:16.930Z,41.99
2019-05-30T15:14:50.403Z,42.25
2019-05-30T15:17:23.817Z,42.93
2019-05-30T15:19:57.268Z,41.73
2019-05-30T15:22:30.661Z,41.23
2019-05-30T15:25:05.950Z,42.33
2019-05-30T15:27:39.434Z,42.17
2019-05-30T15:30:15.111Z,42.42
2019-05-30T15:32:48.527Z,43.35
2019-05-30T15:35:22.024Z,42.88
2019-05-30T15:37:55.442Z,43.42
2019-05-30T15:40:28.994Z,43.60
2019-05-30T15:43:02.548Z,43.94
2019-05-30T15:45:36.040Z,43.89
2019-05-30T15:48:10.308Z,43.89
2019-05-30T15:50:43.838Z,44.50
2019-05-30T15:53:17.377Z,44.52
2019-05-30T15:55:50.779Z,44.68
2019-05-30T15:58:24.224Z,44.78
2019-05-30T16:00:57.648Z,45.17
2019-05-30T16:03:31.051Z,45.95
2019-05-30T16:06:04.537Z,46.66
2019-05-30T16:08:37.928Z,47.23
2019-05-30T16:11:11.359Z,46.90
2019-05-30T16:13:44.772Z,47.78
2019-05-30T16:16:36.057Z,47.53
2019-05-30T16:18:53.340Z,47.25
2019-05-30T16:21:26.766Z,47.27
2019-05-30T16:24:00.159Z,48.05
2019-05-30T16:26:33.595Z,48.00
2019-05-30T16:29:07.091Z,47.83
2019-05-30T16:31:40.607Z,47.18
2019-05-30T16:34:14.020Z,46.96
2019-05-30T16:36:47.459Z,46.08
2019-05-30T16:39:20.871Z,46.46
2019-05-30T16:41:54.672Z,46.25
2019-05-30T16:44:28.106Z,46.88
2019-05-30T16:47:01.504Z,46.83
2019-05-30T16:49:34.926Z,46.49
2019-05-30T16:52:08.387Z,47.12
2019-05-30T16:54:42.049Z,46.36
2019-05-30T16:57:16.463Z,46.50
2019-05-30T16:59:49.987Z,47.07
2019-05-30T17:02:23.403Z,47.44
2019-05-30T17:04:56.843Z,47.57
2019-05-30T17:07:30.300Z,45.59
2019-05-30T17:10:20.892Z,46.07
2019-05-30T17:12:40.398Z,46.95
2019-05-30T17:15:15.610Z,44.00
2019-05-30T17:17:49.259Z,43.95
2019-05-30T17:20:23.178Z,46.64
2019-05-30T17:22:56.700Z,46.87
2019-05-30T17:25:30.110Z,47.40
2019-05-30T17:28:03.624Z,47.70
2019-05-30T17:30:37.104Z,47.99
2019-05-30T17:33:10.538Z,46.74
2019-05-30T17:35:44.303Z,45.59
2019-05-30T17:38:18.466Z,47.10
2019-05-30T17:40:51.906Z,47.99
2019-05-30T17:43:25.364Z,44.09
2019-05-30T17:45:58.778Z,43.64
2019-05-30T17:48:32.220Z,44.00
2019-05-30T17:51:05.697Z,44.37
2019-05-30T17:53:39.146Z,45.61
2019-05-30T17:56:12.537Z,46.80
2019-05-30T17:58:45.968Z,49.13
2019-05-30T18:01:20.223Z,49.68
2019-05-30T18:03:53.631Z,50.62
2019-05-30T18:06:27.032Z,51.25
2019-05-30T18:09:00.514Z,51.61
2019-05-30T18:11:34.042Z,51.63
2019-05-30T18:14:07.538Z,51.86
2019-05-30T18:16:40.968Z,52.10
2019-05-30T18:19:14.503Z,52.65
2019-05-30T18:21:48.016Z,53.12
2019-05-30T18:24:21.457Z,53.21
2019-05-30T18:26:54.837Z,53.78
2019-05-30T18:29:28.250Z,53.71
2019-05-30T18:32:01.665Z,53.82
2019-05-30T18:34:35.077Z,54.28
2019-05-30T18:37:08.503Z,54.85
2019-05-30T18:39:41.897Z,55.04
2019-05-30T18:42:15.413Z,55.42
2019-05-30T18:44:48.848Z,55.99
2019-05-30T18:47:22.968Z,56.16
2019-05-30T18:49:57.909Z,56.57
2019-05-30T18:52:32.555Z,57.01
2019-05-30T18:55:08.196Z,57.32
2019-05-30T18:57:41.638Z,57.76
2019-05-30T19:00:16.991Z,57.98
2019-05-30T19:02:50.422Z,58.46
2019-05-30T19:05:24.472Z,58.39
2019-05-30T19:07:57.905Z,59.29
2019-05-30T19:10:32.164Z,59.19
2019-05-30T19:13:05.776Z,59.71
2019-05-30T19:15:39.190Z,60.39
2019-05-30T19:18:12.635Z,60.46
2019-05-30T19:20:46.059Z,60.96
2019-05-30T19:23:19.489Z,61.32
2019-05-30T19:25:52.902Z,61.96
2019-05-30T19:28:28.533Z,62.18
2019-05-30T19:31:02.059Z,62.41
2019-05-30T19:33:35.479Z,63.25
2019-05-30T19:36:08.883Z,63.80
2019-05-30T19:38:42.309Z,65.13
2019-05-30T19:41:15.711Z,65.13
2019-05-30T19:43:49.207Z,65.71
2019-05-30T19:46:22.644Z,66.24
2019-05-30T19:48:56.073Z,66.74
2019-05-30T19:51:31.329Z,67.31
2019-05-30T19:54:04.765Z,67.92
2019-05-30T19:56:40.834Z,68.57
2019-05-30T19:59:13.339Z,68.61
2019-05-30T20:01:46.739Z,68.76
2019-05-30T20:04:20.189Z,69.25
2019-05-30T20:06:53.654Z,69.62
2019-05-30T20:09:27.119Z,69.75
2019-05-30T20:12:03.990Z,70.11
2019-05-30T20:14:35.688Z,70.06
2019-05-30T20:17:09.451Z,70.30
2019-05-30T20:19:42.890Z,70.82
2019-05-30T20:22:16.274Z,70.95
2019-05-30T20:24:49.674Z,71.46
2019-05-30T20:27:23.071Z,72.17
2019-05-30T20:29:56.879Z,72.98
2019-05-30T20:32:30.391Z,73.52
2019-05-30T20:35:04.482Z,73.87
2019-05-30T20:37:38.734Z,74.74
2019-05-30T20:40:13.027Z,75.16
2019-05-30T20:42:47.097Z,75.01
2019-05-30T20:45:20.906Z,74.73
2019-05-30T20:47:54.317Z,74.82
2019-05-30T20:50:27.909Z,75.34
2019-05-30T20:53:01.327Z,74.93
2019-05-30T20:55:34.775Z,74.86
2019-05-30T20:58:08.184Z,74.50
2019-05-30T21:00:42.244Z,74.73
2019-05-30T21:03:15.845Z,74.94
2019-05-30T21:05:49.461Z,74.83
2019-05-30T21:08:23.611Z,74.96
2019-05-30T21:10:58.662Z,75.25
2019-05-30T21:13:36.208Z,75.72
2019-05-30T21:16:13.248Z,76.34
2019-05-30T21:18:46.738Z,76.64
2019-05-30T21:21:20.316Z,76.88
2019-05-30T21:23:53.729Z,76.92
2019-05-30T21:26:27.161Z,77.13
2019-05-30T21:29:00.835Z,77.50
2019-05-30T21:31:34.287Z,77.68
2019-05-30T21:34:07.762Z,77.97
2019-05-30T21:36:41.939Z,78.37
2019-05-30T21:39:15.430Z,78.72
2019-05-30T21:41:48.942Z,78.82
2019-05-30T21:44:22.343Z,79.12
2019-05-30T21:46:55.793Z,79.26
2019-05-30T21:49:29.192Z,77.73
2019-05-30T21:52:02.688Z,77.30
2019-05-30T21:54:36.077Z,77.54
2019-05-30T21:57:09.494Z,77.23
2019-05-30T21:59:44.078Z,77.17
2019-05-30T22:02:17.892Z,77.08
2019-05-30T22:04:51.266Z,77.32
2019-05-30T22:07:24.843Z,77.18
2019-05-30T22:09:58.245Z,77.45
2019-05-30T22:12:31.646Z,76.90
2019-05-30T22:15:06.676Z,77.12
2019-05-30T22:17:40.165Z,77.45
2019-05-30T22:20:14.015Z,77.88
2019-05-30T22:22:48.175Z,78.28
2019-05-30T22:25:21.625Z,78.63
2019-05-30T22:27:55.039Z,78.67
2019-05-30T22:30:28.440Z,78.32
2019-05-30T22:33:01.874Z,78.23
2019-05-30T22:35:36.164Z,78.15
2019-05-30T22:38:09.572Z,78.67
2019-05-30T22:40:43.744Z,78.83
2019-05-30T22:43:25.366Z,79.28
2019-05-30T22:45:52.743Z,79.11
2019-05-30T22:48:26.153Z,79.29
2019-05-30T22:50:59.627Z,79.53
2019-05-30T22:53:33.066Z,79.82
2019-05-30T22:56:06.470Z,79.80
2019-05-30T22:58:39.893Z,79.79
2019-05-30T23:01:13.375Z,79.97
2019-05-30T23:03:47.193Z,79.83
2019-05-30T23:06:20.596Z,79.76
2019-05-30T23:08:54.913Z,79.97
2019-05-30T23:11:28.507Z,80.24
2019-05-30T23:14:01.937Z,80.25
2019-05-30T23:16:35.336Z,80.01
2019-05-30T23:19:08.768Z,79.98
2019-05-30T23:21:42.189Z,80.02
2019-05-30T23:24:15.616Z,80.61
2019-05-30T23:26:49.436Z,81.03
2019-05-30T23:29:22.945Z,81.49
2019-05-30T23:31:56.361Z,81.60
2019-05-30T23:34:29.791Z,81.60
2019-05-30T23:37:03.184Z,82.05
2019-05-30T23:39:36.643Z,82.22
2019-05-30T23:42:10.065Z,82.71
2019-05-30T23:44:43.470Z,82.87
2019-05-30T23:47:16.914Z,82.38
2019-05-30T23:49:51.655Z,82.78
2019-05-30T23:52:25.138Z,82.77
2019-05-30T23:54:58.558Z,82.89
2019-05-30T23:57:31.933Z,82.84
